sensor_id;sensor_type;location;lat;lon;timestamp;P1;durP1;ratioP1;P2;durP2;ratioP2
26612;SDS011;14248;57.652;11.908;2023-04-25T00:02:03;10.77;;;8.77;;
26612;SDS011;14248;57.652;11.908;2023-04-25T00:04:30;10.60;;;8.88;;
26612;SDS011;14248;57.652;11.908;2023-04-25T00:06:58;9.05;;;7.95;;
26612;SDS011;14248;57.652;11.908;2023-04-25T00:09:27;10.18;;;8.60;;
26612;SDS011;14248;57.652;11.908;2023-04-25T00:11:53;11.40;;;8.98;;
26612;SDS011;14248;57.652;11.908;2023-04-25T00:14:19;10.73;;;8.68;;
26612;SDS011;14248;57.652;11.908;2023-04-25T00:16:45;10.63;;;8.50;;
26612;SDS011;14248;57.652;11.908;2023-04-25T00:19:11;10.52;;;8.77;;
26612;SDS011;14248;57.652;11.908;2023-04-25T00:21:38;9.55;;;8.20;;
26612;SDS011;14248;57.652;11.908;2023-04-25T00:24:07;11.18;;;9.07;;
26612;SDS011;14248;57.652;11.908;2023-04-25T00:26:34;11.63;;;8.65;;
26612;SDS011;14248;57.652;11.908;2023-04-25T00:29:01;11.48;;;8.93;;
26612;SDS011;14248;57.652;11.908;2023-04-25T00:31:27;12.02;;;9.40;;
26612;SDS011;14248;57.652;11.908;2023-04-25T00:33:54;13.13;;;9.73;;
26612;SDS011;14248;57.652;11.908;2023-04-25T00:36:20;11.18;;;8.68;;
26612;SDS011;14248;57.652;11.908;2023-04-25T00:38:46;12.93;;;9.63;;
26612;SDS011;14248;57.652;11.908;2023-04-25T00:41:12;13.15;;;9.27;;
26612;SDS011;14248;57.652;11.908;2023-04-25T00:43:38;10.15;;;8.63;;
26612;SDS011;14248;57.652;11.908;2023-04-25T00:46:05;10.63;;;8.50;;
26612;SDS011;14248;57.652;11.908;2023-04-25T00:48:31;12.85;;;10.02;;
26612;SDS011;14248;57.652;11.908;2023-04-25T00:50:57;12.55;;;9.90;;
26612;SDS011;14248;57.652;11.908;2023-04-25T00:53:24;15.02;;;11.30;;
26612;SDS011;14248;57.652;11.908;2023-04-25T00:55:51;11.90;;;9.80;;
26612;SDS011;14248;57.652;11.908;2023-04-25T00:58:18;12.80;;;9.35;;
26612;SDS011;14248;57.652;11.908;2023-04-25T01:00:48;11.43;;;9.80;;
26612;SDS011;14248;57.652;11.908;2023-04-25T01:03:15;13.13;;;10.27;;
26612;SDS011;14248;57.652;11.908;2023-04-25T01:05:42;15.57;;;10.50;;
26612;SDS011;14248;57.652;11.908;2023-04-25T01:08:08;13.30;;;10.23;;
26612;SDS011;14248;57.652;11.908;2023-04-25T01:10:36;14.38;;;10.30;;
26612;SDS011;14248;57.652;11.908;2023-04-25T01:13:02;11.32;;;8.90;;
26612;SDS011;14248;57.652;11.908;2023-04-25T01:15:29;14.15;;;11.55;;
26612;SDS011;14248;57.652;11.908;2023-04-25T01:17:55;11.20;;;9.23;;
26612;SDS011;14248;57.652;11.908;2023-04-25T01:20:22;9.93;;;8.80;;
26612;SDS011;14248;57.652;11.908;2023-04-25T01:22:48;10.10;;;8.45;;
26612;SDS011;14248;57.652;11.908;2023-04-25T01:25:14;12.45;;;8.77;;
26612;SDS011;14248;57.652;11.908;2023-04-25T01:27:41;10.18;;;8.05;;
26612;SDS011;14248;57.652;11.908;2023-04-25T01:30:07;9.98;;;7.78;;
26612;SDS011;14248;57.652;11.908;2023-04-25T01:32:33;9.05;;;7.60;;
26612;SDS011;14248;57.652;11.908;2023-04-25T01:35:07;8.68;;;7.78;;
26612;SDS011;14248;57.652;11.908;2023-04-25T01:37:42;9.88;;;8.10;;
26612;SDS011;14248;57.652;11.908;2023-04-25T01:40:09;10.95;;;9.20;;
26612;SDS011;14248;57.652;11.908;2023-04-25T01:42:37;12.02;;;8.65;;
26612;SDS011;14248;57.652;11.908;2023-04-25T01:45:03;15.77;;;10.10;;
26612;SDS011;14248;57.652;11.908;2023-04-25T01:47:30;11.18;;;8.75;;
26612;SDS011;14248;57.652;11.908;2023-04-25T01:49:56;13.07;;;9.95;;
26612;SDS011;14248;57.652;11.908;2023-04-25T01:52:22;9.70;;;8.20;;
26612;SDS011;14248;57.652;11.908;2023-04-25T01:54:49;8.68;;;7.25;;
26612;SDS011;14248;57.652;11.908;2023-04-25T01:57:15;11.13;;;9.57;;
26612;SDS011;14248;57.652;11.908;2023-04-25T01:59:41;11.68;;;9.23;;
26612;SDS011;14248;57.652;11.908;2023-04-25T02:02:07;11.27;;;9.00;;
26612;SDS011;14248;57.652;11.908;2023-04-25T02:04:33;10.75;;;8.95;;
26612;SDS011;14248;57.652;11.908;2023-04-25T02:06:59;11.07;;;9.23;;
26612;SDS011;14248;57.652;11.908;2023-04-25T02:09:25;9.73;;;8.30;;
26612;SDS011;14248;57.652;11.908;2023-04-25T02:11:52;11.73;;;8.77;;
26612;SDS011;14248;57.652;11.908;2023-04-25T02:14:18;8.68;;;7.30;;
26612;SDS011;14248;57.652;11.908;2023-04-25T02:16:44;8.95;;;7.82;;
26612;SDS011;14248;57.652;11.908;2023-04-25T02:19:12;9.85;;;8.18;;
26612;SDS011;14248;57.652;11.908;2023-04-25T02:21:38;10.48;;;8.27;;
26612;SDS011;14248;57.652;11.908;2023-04-25T02:24:04;10.20;;;8.32;;
26612;SDS011;14248;57.652;11.908;2023-04-25T02:26:30;11.50;;;8.75;;
26612;SDS011;14248;57.652;11.908;2023-04-25T02:28:57;9.05;;;7.35;;
26612;SDS011;14248;57.652;11.908;2023-04-25T02:31:23;9.85;;;7.43;;
26612;SDS011;14248;57.652;11.908;2023-04-25T02:33:49;10.45;;;8.52;;
26612;SDS011;14248;57.652;11.908;2023-04-25T02:36:15;8.32;;;7.03;;
26612;SDS011;14248;57.652;11.908;2023-04-25T02:38:41;8.55;;;7.28;;
26612;SDS011;14248;57.652;11.908;2023-04-25T02:41:07;9.10;;;7.88;;
26612;SDS011;14248;57.652;11.908;2023-04-25T02:43:33;10.38;;;8.60;;
26612;SDS011;14248;57.652;11.908;2023-04-25T02:45:59;12.40;;;8.02;;
26612;SDS011;14248;57.652;11.908;2023-04-25T02:48:25;11.23;;;8.57;;
26612;SDS011;14248;57.652;11.908;2023-04-25T02:50:51;10.18;;;7.72;;
26612;SDS011;14248;57.652;11.908;2023-04-25T02:53:17;9.55;;;7.72;;
26612;SDS011;14248;57.652;11.908;2023-04-25T02:55:43;11.63;;;8.20;;
26612;SDS011;14248;57.652;11.908;2023-04-25T02:58:09;8.95;;;7.57;;
26612;SDS011;14248;57.652;11.908;2023-04-25T03:00:36;10.90;;;8.70;;
26612;SDS011;14248;57.652;11.908;2023-04-25T03:03:02;11.00;;;7.97;;
26612;SDS011;14248;57.652;11.908;2023-04-25T03:05:28;8.20;;;6.95;;
26612;SDS011;14248;57.652;11.908;2023-04-25T03:07:54;8.32;;;7.20;;
26612;SDS011;14248;57.652;11.908;2023-04-25T03:10:21;7.40;;;6.63;;
26612;SDS011;14248;57.652;11.908;2023-04-25T03:12:48;9.45;;;7.95;;
26612;SDS011;14248;57.652;11.908;2023-04-25T03:15:14;11.07;;;8.90;;
26612;SDS011;14248;57.652;11.908;2023-04-25T03:17:41;8.18;;;7.22;;
26612;SDS011;14248;57.652;11.908;2023-04-25T03:20:07;8.88;;;7.65;;
26612;SDS011;14248;57.652;11.908;2023-04-25T03:22:34;8.13;;;7.25;;
26612;SDS011;14248;57.652;11.908;2023-04-25T03:25:00;8.52;;;7.05;;
26612;SDS011;14248;57.652;11.908;2023-04-25T03:27:26;8.00;;;6.80;;
26612;SDS011;14248;57.652;11.908;2023-04-25T03:29:52;8.02;;;7.07;;
26612;SDS011;14248;57.652;11.908;2023-04-25T03:32:18;6.43;;;5.80;;
26612;SDS011;14248;57.652;11.908;2023-04-25T03:34:44;7.10;;;5.97;;
26612;SDS011;14248;57.652;11.908;2023-04-25T03:37:10;5.95;;;5.35;;
26612;SDS011;14248;57.652;11.908;2023-04-25T03:39:36;6.03;;;5.40;;
26612;SDS011;14248;57.652;11.908;2023-04-25T03:42:03;7.80;;;6.68;;
26612;SDS011;14248;57.652;11.908;2023-04-25T03:44:29;9.25;;;7.68;;
26612;SDS011;14248;57.652;11.908;2023-04-25T03:46:55;10.32;;;7.68;;
26612;SDS011;14248;57.652;11.908;2023-04-25T03:49:21;8.57;;;6.72;;
26612;SDS011;14248;57.652;11.908;2023-04-25T03:51:47;10.07;;;7.68;;
26612;SDS011;14248;57.652;11.908;2023-04-25T03:54:14;9.35;;;7.68;;
26612;SDS011;14248;57.652;11.908;2023-04-25T03:56:40;8.20;;;6.88;;
26612;SDS011;14248;57.652;11.908;2023-04-25T03:59:06;9.60;;;7.20;;
26612;SDS011;14248;57.652;11.908;2023-04-25T04:01:33;10.32;;;8.23;;
26612;SDS011;14248;57.652;11.908;2023-04-25T04:03:59;10.88;;;8.75;;
26612;SDS011;14248;57.652;11.908;2023-04-25T04:06:25;10.90;;;8.55;;
26612;SDS011;14248;57.652;11.908;2023-04-25T04:08:51;12.32;;;8.55;;
26612;SDS011;14248;57.652;11.908;2023-04-25T04:11:17;9.50;;;7.97;;
26612;SDS011;14248;57.652;11.908;2023-04-25T04:13:43;11.30;;;8.05;;
26612;SDS011;14248;57.652;11.908;2023-04-25T04:16:09;9.75;;;7.68;;
26612;SDS011;14248;57.652;11.908;2023-04-25T04:18:36;10.27;;;6.95;;
26612;SDS011;14248;57.652;11.908;2023-04-25T04:21:02;8.25;;;6.03;;
26612;SDS011;14248;57.652;11.908;2023-04-25T04:23:28;8.75;;;5.93;;
26612;SDS011;14248;57.652;11.908;2023-04-25T04:25:54;6.80;;;5.05;;
26612;SDS011;14248;57.652;11.908;2023-04-25T04:28:21;7.18;;;5.22;;
26612;SDS011;14248;57.652;11.908;2023-04-25T04:30:47;7.10;;;4.50;;
26612;SDS011;14248;57.652;11.908;2023-04-25T04:33:17;8.80;;;5.25;;
26612;SDS011;14248;57.652;11.908;2023-04-25T04:35:46;5.78;;;4.00;;
26612;SDS011;14248;57.652;11.908;2023-04-25T04:38:13;4.70;;;3.53;;
26612;SDS011;14248;57.652;11.908;2023-04-25T04:40:43;3.85;;;3.03;;
26612;SDS011;14248;57.652;11.908;2023-04-25T04:43:09;4.20;;;3.15;;
26612;SDS011;14248;57.652;11.908;2023-04-25T04:45:36;4.03;;;2.70;;
26612;SDS011;14248;57.652;11.908;2023-04-25T04:48:05;2.95;;;2.40;;
26612;SDS011;14248;57.652;11.908;2023-04-25T04:50:32;3.15;;;2.67;;
26612;SDS011;14248;57.652;11.908;2023-04-25T04:52:59;3.97;;;2.60;;
26612;SDS011;14248;57.652;11.908;2023-04-25T04:55:25;5.18;;;3.10;;
26612;SDS011;14248;57.652;11.908;2023-04-25T04:57:51;4.95;;;3.58;;
26612;SDS011;14248;57.652;11.908;2023-04-25T05:00:17;3.75;;;2.70;;
26612;SDS011;14248;57.652;11.908;2023-04-25T05:02:43;3.40;;;1.90;;
26612;SDS011;14248;57.652;11.908;2023-04-25T05:05:09;3.95;;;2.58;;
26612;SDS011;14248;57.652;11.908;2023-04-25T05:07:35;3.42;;;2.70;;
26612;SDS011;14248;57.652;11.908;2023-04-25T05:10:01;4.10;;;2.63;;
26612;SDS011;14248;57.652;11.908;2023-04-25T05:12:28;4.10;;;2.55;;
26612;SDS011;14248;57.652;11.908;2023-04-25T05:14:58;3.70;;;2.60;;
26612;SDS011;14248;57.652;11.908;2023-04-25T05:17:25;3.63;;;2.20;;
26612;SDS011;14248;57.652;11.908;2023-04-25T05:19:51;2.05;;;1.85;;
26612;SDS011;14248;57.652;11.908;2023-04-25T05:22:17;2.63;;;2.05;;
26612;SDS011;14248;57.652;11.908;2023-04-25T05:24:43;2.72;;;2.03;;
26612;SDS011;14248;57.652;11.908;2023-04-25T05:27:09;2.22;;;1.98;;
26612;SDS011;14248;57.652;11.908;2023-04-25T05:29:35;2.97;;;1.90;;
26612;SDS011;14248;57.652;11.908;2023-04-25T05:32:02;3.65;;;1.80;;
26612;SDS011;14248;57.652;11.908;2023-04-25T05:34:28;1.85;;;1.67;;
26612;SDS011;14248;57.652;11.908;2023-04-25T05:36:54;2.78;;;1.60;;
26612;SDS011;14248;57.652;11.908;2023-04-25T05:39:20;3.85;;;1.40;;
26612;SDS011;14248;57.652;11.908;2023-04-25T05:41:46;1.17;;;1.00;;
26612;SDS011;14248;57.652;11.908;2023-04-25T05:44:12;1.67;;;1.10;;
26612;SDS011;14248;57.652;11.908;2023-04-25T05:46:38;1.83;;;1.10;;
26612;SDS011;14248;57.652;11.908;2023-04-25T05:49:04;1.38;;;1.10;;
26612;SDS011;14248;57.652;11.908;2023-04-25T05:51:30;3.53;;;1.17;;
26612;SDS011;14248;57.652;11.908;2023-04-25T05:53:56;1.77;;;1.45;;
26612;SDS011;14248;57.652;11.908;2023-04-25T05:56:22;1.60;;;1.45;;
26612;SDS011;14248;57.652;11.908;2023-04-25T05:58:49;3.97;;;2.10;;
26612;SDS011;14248;57.652;11.908;2023-04-25T06:01:15;6.90;;;2.40;;
26612;SDS011;14248;57.652;11.908;2023-04-25T06:03:42;4.65;;;2.25;;
26612;SDS011;14248;57.652;11.908;2023-04-25T06:06:08;6.00;;;1.88;;
26612;SDS011;14248;57.652;11.908;2023-04-25T06:08:35;6.88;;;2.50;;
26612;SDS011;14248;57.652;11.908;2023-04-25T06:11:02;10.25;;;2.75;;
26612;SDS011;14248;57.652;11.908;2023-04-25T06:13:28;7.53;;;2.33;;
26612;SDS011;14248;57.652;11.908;2023-04-25T06:15:54;5.18;;;1.85;;
26612;SDS011;14248;57.652;11.908;2023-04-25T06:18:20;6.90;;;2.10;;
26612;SDS011;14248;57.652;11.908;2023-04-25T06:20:47;8.30;;;2.05;;
26612;SDS011;14248;57.652;11.908;2023-04-25T06:23:13;10.43;;;1.92;;
26612;SDS011;14248;57.652;11.908;2023-04-25T06:25:39;4.63;;;2.00;;
26612;SDS011;14248;57.652;11.908;2023-04-25T06:28:05;5.43;;;1.35;;
26612;SDS011;14248;57.652;11.908;2023-04-25T06:30:31;6.40;;;1.48;;
26612;SDS011;14248;57.652;11.908;2023-04-25T06:32:57;4.63;;;1.50;;
26612;SDS011;14248;57.652;11.908;2023-04-25T06:35:23;6.32;;;1.83;;
26612;SDS011;14248;57.652;11.908;2023-04-25T06:37:49;4.32;;;1.38;;
26612;SDS011;14248;57.652;11.908;2023-04-25T06:40:16;6.05;;;1.10;;
26612;SDS011;14248;57.652;11.908;2023-04-25T06:42:42;3.20;;;0.73;;
26612;SDS011;14248;57.652;11.908;2023-04-25T06:45:10;4.15;;;1.08;;
26612;SDS011;14248;57.652;11.908;2023-04-25T06:47:37;2.35;;;1.00;;
26612;SDS011;14248;57.652;11.908;2023-04-25T06:52:33;2.67;;;0.95;;
26612;SDS011;14248;57.652;11.908;2023-04-25T06:55:03;2.60;;;0.88;;
26612;SDS011;14248;57.652;11.908;2023-04-25T06:57:30;3.78;;;0.68;;
26612;SDS011;14248;57.652;11.908;2023-04-25T06:59:56;5.07;;;1.00;;
26612;SDS011;14248;57.652;11.908;2023-04-25T07:02:39;3.13;;;1.02;;
26612;SDS011;14248;57.652;11.908;2023-04-25T07:05:14;3.50;;;0.82;;
26612;SDS011;14248;57.652;11.908;2023-04-25T07:07:40;3.38;;;0.60;;
26612;SDS011;14248;57.652;11.908;2023-04-25T07:10:07;5.38;;;0.73;;
26612;SDS011;14248;57.652;11.908;2023-04-25T07:12:33;4.43;;;0.80;;
26612;SDS011;14248;57.652;11.908;2023-04-25T07:15:02;2.05;;;0.35;;
26612;SDS011;14248;57.652;11.908;2023-04-25T07:20:00;2.75;;;0.35;;
26612;SDS011;14248;57.652;11.908;2023-04-25T07:22:28;1.08;;;0.30;;
26612;SDS011;14248;57.652;11.908;2023-04-25T07:24:54;1.38;;;0.30;;
26612;SDS011;14248;57.652;11.908;2023-04-25T07:27:21;4.97;;;0.60;;
26612;SDS011;14248;57.652;11.908;2023-04-25T07:29:47;3.22;;;0.30;;
26612;SDS011;14248;57.652;11.908;2023-04-25T07:32:15;3.22;;;0.40;;
26612;SDS011;14248;57.652;11.908;2023-04-25T07:34:41;2.83;;;0.40;;
26612;SDS011;14248;57.652;11.908;2023-04-25T07:37:08;2.20;;;0.35;;
26612;SDS011;14248;57.652;11.908;2023-04-25T07:39:40;1.00;;;0.30;;
26612;SDS011;14248;57.652;11.908;2023-04-25T07:42:06;1.33;;;0.40;;
26612;SDS011;14248;57.652;11.908;2023-04-25T07:44:38;2.75;;;0.45;;
26612;SDS011;14248;57.652;11.908;2023-04-25T07:52:10;4.13;;;0.77;;
26612;SDS011;14248;57.652;11.908;2023-04-25T07:54:36;1.63;;;0.43;;
26612;SDS011;14248;57.652;11.908;2023-04-25T07:57:02;1.20;;;0.35;;
26612;SDS011;14248;57.652;11.908;2023-04-25T07:59:28;1.45;;;0.22;;
26612;SDS011;14248;57.652;11.908;2023-04-25T08:01:54;3.92;;;0.50;;
26612;SDS011;14248;57.652;11.908;2023-04-25T08:04:29;1.83;;;0.30;;
26612;SDS011;14248;57.652;11.908;2023-04-25T08:06:57;2.85;;;0.30;;
26612;SDS011;14248;57.652;11.908;2023-04-25T08:09:24;1.15;;;0.30;;
26612;SDS011;14248;57.652;11.908;2023-04-25T08:11:51;2.47;;;0.73;;
26612;SDS011;14248;57.652;11.908;2023-04-25T08:14:17;3.72;;;0.30;;
26612;SDS011;14248;57.652;11.908;2023-04-25T08:16:44;2.40;;;0.30;;
26612;SDS011;14248;57.652;11.908;2023-04-25T08:19:11;3.10;;;0.50;;
26612;SDS011;14248;57.652;11.908;2023-04-25T08:21:37;1.38;;;0.20;;
26612;SDS011;14248;57.652;11.908;2023-04-25T08:24:03;2.55;;;0.50;;
26612;SDS011;14248;57.652;11.908;2023-04-25T08:26:29;3.78;;;0.40;;
26612;SDS011;14248;57.652;11.908;2023-04-25T08:28:55;0.73;;;0.45;;
26612;SDS011;14248;57.652;11.908;2023-04-25T08:31:23;0.73;;;0.20;;
26612;SDS011;14248;57.652;11.908;2023-04-25T08:33:49;1.52;;;0.30;;
26612;SDS011;14248;57.652;11.908;2023-04-25T08:36:16;2.42;;;0.50;;
26612;SDS011;14248;57.652;11.908;2023-04-25T08:38:44;0.50;;;0.20;;
26612;SDS011;14248;57.652;11.908;2023-04-25T08:41:11;1.20;;;0.30;;
26612;SDS011;14248;57.652;11.908;2023-04-25T08:43:37;0.63;;;0.20;;
26612;SDS011;14248;57.652;11.908;2023-04-25T08:46:03;3.03;;;0.40;;
26612;SDS011;14248;57.652;11.908;2023-04-25T08:48:32;0.55;;;0.20;;
26612;SDS011;14248;57.652;11.908;2023-04-25T08:51:03;1.27;;;0.20;;
26612;SDS011;14248;57.652;11.908;2023-04-25T08:53:32;1.58;;;0.40;;
26612;SDS011;14248;57.652;11.908;2023-04-25T08:56:00;1.80;;;0.25;;
26612;SDS011;14248;57.652;11.908;2023-04-25T08:58:28;3.45;;;0.50;;
26612;SDS011;14248;57.652;11.908;2023-04-25T09:00:54;4.20;;;0.20;;
26612;SDS011;14248;57.652;11.908;2023-04-25T09:03:20;2.97;;;0.52;;
26612;SDS011;14248;57.652;11.908;2023-04-25T09:05:47;2.13;;;0.47;;
26612;SDS011;14248;57.652;11.908;2023-04-25T09:08:13;1.15;;;0.28;;
26612;SDS011;14248;57.652;11.908;2023-04-25T09:10:39;0.70;;;0.40;;
26612;SDS011;14248;57.652;11.908;2023-04-25T09:13:07;0.60;;;0.30;;
26612;SDS011;14248;57.652;11.908;2023-04-25T09:15:50;2.17;;;0.40;;
26612;SDS011;14248;57.652;11.908;2023-04-25T09:20:52;1.83;;;0.30;;
26612;SDS011;14248;57.652;11.908;2023-04-25T09:23:19;1.55;;;0.10;;
26612;SDS011;14248;57.652;11.908;2023-04-25T09:25:50;1.42;;;0.20;;
26612;SDS011;14248;57.652;11.908;2023-04-25T09:28:22;1.35;;;0.32;;
26612;SDS011;14248;57.652;11.908;2023-04-25T09:30:54;0.60;;;0.20;;
26612;SDS011;14248;57.652;11.908;2023-04-25T09:33:20;1.00;;;0.35;;
26612;SDS011;14248;57.652;11.908;2023-04-25T09:35:46;3.38;;;0.40;;
26612;SDS011;14248;57.652;11.908;2023-04-25T09:38:21;1.08;;;0.40;;
26612;SDS011;14248;57.652;11.908;2023-04-25T09:40:47;1.75;;;0.35;;
26612;SDS011;14248;57.652;11.908;2023-04-25T09:43:20;1.58;;;0.20;;
26612;SDS011;14248;57.652;11.908;2023-04-25T09:45:46;1.83;;;0.30;;
26612;SDS011;14248;57.652;11.908;2023-04-25T09:51:03;1.02;;;0.20;;
26612;SDS011;14248;57.652;11.908;2023-04-25T09:53:31;1.73;;;0.30;;
26612;SDS011;14248;57.652;11.908;2023-04-25T09:55:59;1.15;;;0.25;;
26612;SDS011;14248;57.652;11.908;2023-04-25T09:58:26;1.75;;;0.30;;
26612;SDS011;14248;57.652;11.908;2023-04-25T10:00:55;0.30;;;0.10;;
26612;SDS011;14248;57.652;11.908;2023-04-25T10:03:25;1.25;;;0.35;;
26612;SDS011;14248;57.652;11.908;2023-04-25T10:05:52;1.17;;;0.20;;
26612;SDS011;14248;57.652;11.908;2023-04-25T10:08:19;1.02;;;0.20;;
26612;SDS011;14248;57.652;11.908;2023-04-25T10:10:46;0.82;;;0.10;;
26612;SDS011;14248;57.652;11.908;2023-04-25T10:13:13;0.55;;;0.20;;
26612;SDS011;14248;57.652;11.908;2023-04-25T10:15:42;0.68;;;0.10;;
26612;SDS011;14248;57.652;11.908;2023-04-25T10:18:14;2.22;;;0.47;;
26612;SDS011;14248;57.652;11.908;2023-04-25T10:23:12;1.08;;;0.30;;
26612;SDS011;14248;57.652;11.908;2023-04-25T10:25:44;1.33;;;0.20;;
26612;SDS011;14248;57.652;11.908;2023-04-25T10:28:10;1.15;;;0.30;;
26612;SDS011;14248;57.652;11.908;2023-04-25T10:30:36;3.75;;;0.75;;
26612;SDS011;14248;57.652;11.908;2023-04-25T10:33:16;2.38;;;0.28;;
26612;SDS011;14248;57.652;11.908;2023-04-25T10:35:45;2.40;;;0.28;;
26612;SDS011;14248;57.652;11.908;2023-04-25T10:38:16;2.05;;;0.55;;
26612;SDS011;14248;57.652;11.908;2023-04-25T10:41:02;1.33;;;0.20;;
26612;SDS011;14248;57.652;11.908;2023-04-25T10:43:43;2.50;;;0.43;;
26612;SDS011;14248;57.652;11.908;2023-04-25T10:48:47;3.55;;;0.50;;
26612;SDS011;14248;57.652;11.908;2023-04-25T10:53:58;0.28;;;0.22;;
26612;SDS011;14248;57.652;11.908;2023-04-25T10:56:31;0.55;;;0.22;;
26612;SDS011;14248;57.652;11.908;2023-04-25T10:59:16;1.33;;;0.30;;
26612;SDS011;14248;57.652;11.908;2023-04-25T11:01:48;1.55;;;0.43;;
26612;SDS011;14248;57.652;11.908;2023-04-25T11:07:07;1.35;;;0.30;;
26612;SDS011;14248;57.652;11.908;2023-04-25T11:09:38;1.27;;;0.25;;
26612;SDS011;14248;57.652;11.908;2023-04-25T11:12:07;1.75;;;0.35;;
26612;SDS011;14248;57.652;11.908;2023-04-25T11:14:33;0.98;;;0.45;;
26612;SDS011;14248;57.652;11.908;2023-04-25T11:17:00;0.60;;;0.25;;
26612;SDS011;14248;57.652;11.908;2023-04-25T11:19:27;1.38;;;0.43;;
26612;SDS011;14248;57.652;11.908;2023-04-25T11:21:57;2.00;;;0.30;;
26612;SDS011;14248;57.652;11.908;2023-04-25T11:24:28;2.78;;;0.30;;
26612;SDS011;14248;57.652;11.908;2023-04-25T11:26:54;1.05;;;0.30;;
26612;SDS011;14248;57.652;11.908;2023-04-25T11:29:28;2.53;;;0.40;;
26612;SDS011;14248;57.652;11.908;2023-04-25T11:31:56;0.88;;;0.47;;
26612;SDS011;14248;57.652;11.908;2023-04-25T11:34:25;1.92;;;0.40;;
26612;SDS011;14248;57.652;11.908;2023-04-25T11:36:52;2.00;;;0.52;;
26612;SDS011;14248;57.652;11.908;2023-04-25T11:39:26;1.65;;;0.28;;
26612;SDS011;14248;57.652;11.908;2023-04-25T11:41:58;1.80;;;0.60;;
26612;SDS011;14248;57.652;11.908;2023-04-25T11:44:30;0.75;;;0.43;;
26612;SDS011;14248;57.652;11.908;2023-04-25T11:46:56;2.38;;;0.55;;
26612;SDS011;14248;57.652;11.908;2023-04-25T11:49:24;0.88;;;0.30;;
26612;SDS011;14248;57.652;11.908;2023-04-25T11:51:57;0.50;;;0.30;;
26612;SDS011;14248;57.652;11.908;2023-04-25T11:54:28;0.95;;;0.35;;
26612;SDS011;14248;57.652;11.908;2023-04-25T11:56:56;1.95;;;0.47;;
26612;SDS011;14248;57.652;11.908;2023-04-25T11:59:29;0.90;;;0.25;;
26612;SDS011;14248;57.652;11.908;2023-04-25T12:01:57;3.45;;;0.60;;
26612;SDS011;14248;57.652;11.908;2023-04-25T12:04:25;3.55;;;0.57;;
26612;SDS011;14248;57.652;11.908;2023-04-25T12:06:53;1.05;;;0.30;;
26612;SDS011;14248;57.652;11.908;2023-04-25T12:09:20;2.80;;;0.50;;
26612;SDS011;14248;57.652;11.908;2023-04-25T12:11:47;2.15;;;0.40;;
26612;SDS011;14248;57.652;11.908;2023-04-25T12:14:24;1.02;;;0.43;;
26612;SDS011;14248;57.652;11.908;2023-04-25T12:16:54;0.63;;;0.40;;
26612;SDS011;14248;57.652;11.908;2023-04-25T12:19:23;2.00;;;0.65;;
26612;SDS011;14248;57.652;11.908;2023-04-25T12:21:51;1.95;;;0.50;;
26612;SDS011;14248;57.652;11.908;2023-04-25T12:24:26;3.05;;;0.30;;
26612;SDS011;14248;57.652;11.908;2023-04-25T12:26:58;4.78;;;1.25;;
26612;SDS011;14248;57.652;11.908;2023-04-25T12:29:25;3.13;;;0.32;;
26612;SDS011;14248;57.652;11.908;2023-04-25T12:31:53;2.38;;;0.30;;
26612;SDS011;14248;57.652;11.908;2023-04-25T12:34:23;2.03;;;0.40;;
26612;SDS011;14248;57.652;11.908;2023-04-25T12:36:49;2.90;;;0.50;;
26612;SDS011;14248;57.652;11.908;2023-04-25T12:42:02;2.63;;;0.68;;
26612;SDS011;14248;57.652;11.908;2023-04-25T12:44:29;2.55;;;0.80;;
26612;SDS011;14248;57.652;11.908;2023-04-25T12:46:55;0.60;;;0.30;;
26612;SDS011;14248;57.652;11.908;2023-04-25T12:49:21;3.40;;;0.68;;
26612;SDS011;14248;57.652;11.908;2023-04-25T12:51:49;2.22;;;0.40;;
26612;SDS011;14248;57.652;11.908;2023-04-25T12:54:17;2.25;;;0.40;;
26612;SDS011;14248;57.652;11.908;2023-04-25T12:56:45;0.47;;;0.38;;
26612;SDS011;14248;57.652;11.908;2023-04-25T12:59:14;1.77;;;0.50;;
26612;SDS011;14248;57.652;11.908;2023-04-25T13:01:40;1.20;;;0.40;;
26612;SDS011;14248;57.652;11.908;2023-04-25T13:04:08;1.27;;;0.20;;
26612;SDS011;14248;57.652;11.908;2023-04-25T13:06:34;1.27;;;0.30;;
26612;SDS011;14248;57.652;11.908;2023-04-25T13:09:02;0.30;;;0.20;;
26612;SDS011;14248;57.652;11.908;2023-04-25T13:11:28;1.50;;;0.30;;
26612;SDS011;14248;57.652;11.908;2023-04-25T13:13:55;1.50;;;0.43;;
26612;SDS011;14248;57.652;11.908;2023-04-25T13:16:23;2.38;;;0.25;;
26612;SDS011;14248;57.652;11.908;2023-04-25T13:18:49;2.05;;;0.77;;
26612;SDS011;14248;57.652;11.908;2023-04-25T13:21:16;0.38;;;0.17;;
26612;SDS011;14248;57.652;11.908;2023-04-25T13:23:42;1.13;;;0.30;;
26612;SDS011;14248;57.652;11.908;2023-04-25T13:26:15;0.98;;;0.30;;
26612;SDS011;14248;57.652;11.908;2023-04-25T13:28:41;2.00;;;0.43;;
26612;SDS011;14248;57.652;11.908;2023-04-25T13:31:08;2.28;;;0.57;;
26612;SDS011;14248;57.652;11.908;2023-04-25T13:33:36;1.17;;;0.25;;
26612;SDS011;14248;57.652;11.908;2023-04-25T13:36:02;3.17;;;0.30;;
26612;SDS011;14248;57.652;11.908;2023-04-25T13:40:58;3.92;;;0.50;;
26612;SDS011;14248;57.652;11.908;2023-04-25T13:43:26;1.33;;;0.30;;
26612;SDS011;14248;57.652;11.908;2023-04-25T13:48:23;0.60;;;0.38;;
26612;SDS011;14248;57.652;11.908;2023-04-25T13:50:50;1.55;;;0.25;;
26612;SDS011;14248;57.652;11.908;2023-04-25T13:55:46;1.60;;;0.30;;
26612;SDS011;14248;57.652;11.908;2023-04-25T13:58:14;1.90;;;0.50;;
26612;SDS011;14248;57.652;11.908;2023-04-25T14:00:40;0.82;;;0.30;;
26612;SDS011;14248;57.652;11.908;2023-04-25T14:03:09;0.30;;;0.30;;
26612;SDS011;14248;57.652;11.908;2023-04-25T14:05:45;1.08;;;0.25;;
26612;SDS011;14248;57.652;11.908;2023-04-25T14:08:12;0.38;;;0.20;;
26612;SDS011;14248;57.652;11.908;2023-04-25T14:10:39;0.50;;;0.25;;
26612;SDS011;14248;57.652;11.908;2023-04-25T14:13:06;2.67;;;0.30;;
26612;SDS011;14248;57.652;11.908;2023-04-25T14:18:19;1.77;;;0.40;;
26612;SDS011;14248;57.652;11.908;2023-04-25T14:20:55;1.65;;;0.35;;
26612;SDS011;14248;57.652;11.908;2023-04-25T14:23:26;0.47;;;0.40;;
26612;SDS011;14248;57.652;11.908;2023-04-25T14:25:53;0.20;;;0.20;;
26612;SDS011;14248;57.652;11.908;2023-04-25T14:28:19;2.20;;;0.20;;
26612;SDS011;14248;57.652;11.908;2023-04-25T14:30:46;1.08;;;0.30;;
26612;SDS011;14248;57.652;11.908;2023-04-25T14:33:23;1.85;;;0.30;;
26612;SDS011;14248;57.652;11.908;2023-04-25T14:36:01;3.00;;;0.50;;
26612;SDS011;14248;57.652;11.908;2023-04-25T14:38:29;0.93;;;0.20;;
26612;SDS011;14248;57.652;11.908;2023-04-25T14:40:55;1.25;;;0.43;;
26612;SDS011;14248;57.652;11.908;2023-04-25T14:43:21;1.55;;;0.30;;
26612;SDS011;14248;57.652;11.908;2023-04-25T14:45:47;0.80;;;0.30;;
26612;SDS011;14248;57.652;11.908;2023-04-25T14:50:50;1.55;;;0.32;;
26612;SDS011;14248;57.652;11.908;2023-04-25T14:53:19;0.38;;;0.32;;
26612;SDS011;14248;57.652;11.908;2023-04-25T14:55:45;0.73;;;0.30;;
26612;SDS011;14248;57.652;11.908;2023-04-25T14:58:11;0.30;;;0.20;;
26612;SDS011;14248;57.652;11.908;2023-04-25T15:00:37;0.65;;;0.30;;
26612;SDS011;14248;57.652;11.908;2023-04-25T15:03:04;0.45;;;0.15;;
26612;SDS011;14248;57.652;11.908;2023-04-25T15:05:31;3.25;;;0.40;;
26612;SDS011;14248;57.652;11.908;2023-04-25T15:07:57;0.93;;;0.22;;
26612;SDS011;14248;57.652;11.908;2023-04-25T15:10:23;0.50;;;0.28;;
26612;SDS011;14248;57.652;11.908;2023-04-25T15:12:49;0.45;;;0.20;;
26612;SDS011;14248;57.652;11.908;2023-04-25T15:15:20;1.05;;;0.20;;